Time;durP1;ratioP1;P1;durP2;ratioP2;P2;SDS_P1;SDS_P2;PMS_P1;PMS_P2;Temp;Humidity;BMP_temperature;BMP_pressure;BME280_temperature;BME280_humidity;BME280_pressure;Samples;Min_cycle;Max_cycle;Signal;HPM_P1;HPM_P2
2022/01/12 00:00:39;;;;;;;7.35;2.38;;;;;;;4.59;100.00;101955.88;5012677;28;20057;-79
2022/01/12 00:03:44;;;;;;;2.47;1.23;;;;;;;4.61;100.00;101955.50;5000628;28;20052;-79
2022/01/12 00:06:48;;;;;;;5.75;1.83;;;;;;;4.67;100.00;101942.91;5012550;28;20057;-79
2022/01/12 00:09:51;;;;;;;3.45;1.20;;;;;;;4.70;100.00;101935.84;5012589;28;20056;-79
2022/01/12 00:12:54;;;;;;;3.85;1.85;;;;;;;4.67;100.00;101947.66;4999370;28;20530;-78
2022/01/12 00:15:58;;;;;;;7.10;0.93;;;;;;;4.59;100.00;101957.84;5012746;28;20507;-79
2022/01/12 00:19:02;;;;;;;5.20;2.05;;;;;;;4.55;100.00;101963.34;5012582;28;20622;-78
2022/01/12 00:22:05;;;;;;;6.72;2.92;;;;;;;4.49;100.00;101966.81;4984736;28;20049;-79
2022/01/12 00:25:34;;;;;;;1.52;1.42;;;;;;;4.43;100.00;101965.59;5003065;28;20073;-78
2022/01/12 00:35:25;;;;;;;6.85;0.90;;;;;;;4.16;100.00;101967.72;5012200;28;20067;-79
2022/01/12 00:38:31;;;;;;;6.88;2.22;;;;;;;4.08;100.00;101955.06;4998658;28;20454;-79
2022/01/12 00:41:37;;;;;;;13.65;3.17;;;;;;;3.91;100.00;101971.44;5012077;28;20069;-78
2022/01/12 00:44:45;;;;;;;1.55;1.45;;;;;;;3.95;100.00;101994.31;4998911;28;20406;-79
2022/01/12 00:47:48;;;;;;;10.10;2.08;;;;;;;3.97;100.00;101989.19;4999978;28;20053;-79
2022/01/12 00:50:51;;;;;;;2.47;1.05;;;;;;;4.00;100.00;101991.22;5000076;28;20053;-79
2022/01/12 00:53:56;;;;;;;1.10;1.10;;;;;;;3.94;100.00;101993.53;4999375;28;20053;-79
2022/01/12 00:57:00;;;;;;;3.45;1.60;;;;;;;3.87;100.00;101998.97;5011097;28;20049;-79
2022/01/12 01:00:03;;;;;;;6.03;1.65;;;;;;;3.78;100.00;102006.75;4999093;28;20068;-79
2022/01/12 01:03:08;;;;;;;9.27;2.78;;;;;;;3.74;100.00;102008.66;4999932;28;20052;-79
2022/01/12 01:06:12;;;;;;;1.50;1.50;;;;;;;3.52;100.00;101999.34;4999722;28;20056;-79
2022/01/12 01:09:16;;;;;;;0.85;0.82;;;;;;;3.54;100.00;102001.72;5011242;28;20141;-79
2022/01/12 01:12:19;;;;;;;4.47;2.42;;;;;;;3.55;100.00;101984.03;5010681;28;20076;-79
2022/01/12 01:15:40;;;;;;;2.90;0.93;;;;;;;3.59;100.00;101987.63;5011625;28;20053;-79
2022/01/12 01:25:43;;;;;;;4.38;0.95;;;;;;;3.42;100.00;101979.94;4988243;28;20056;-79
2022/01/12 01:28:46;;;;;;;4.30;0.73;;;;;;;3.40;100.00;101983.06;4985668;28;20057;-79
2022/01/12 01:31:50;;;;;;;1.15;0.90;;;;;;;3.42;100.00;101993.72;4993093;28;20057;-78
2022/01/12 01:34:54;;;;;;;1.50;0.90;;;;;;;3.36;100.00;102007.00;4986500;28;20053;-79
2022/01/12 01:38:00;;;;;;;1.85;0.95;;;;;;;3.39;100.00;102016.50;4990592;28;20412;-79
2022/01/12 01:41:03;;;;;;;3.38;0.95;;;;;;;3.34;100.00;102006.59;4998989;28;20052;-79
2022/01/12 01:44:33;;;;;;;1.45;1.33;;;;;;;3.33;100.00;102010.53;4999228;28;20404;-79
2022/01/12 01:54:16;;;;;;;1.73;1.63;;;;;;;3.22;100.00;102017.06;5010870;28;20107;-79
2022/01/12 01:57:19;;;;;;;0.50;0.50;;;;;;;3.18;100.00;102019.75;4999328;28;20403;-79
2022/01/12 02:00:25;;;;;;;1.15;0.75;;;;;;;3.13;100.00;102019.28;5011181;28;20072;-79
2022/01/12 02:03:30;;;;;;;2.90;1.42;;;;;;;3.13;100.00;102019.28;5011002;28;20061;-79
2022/01/12 02:06:33;;;;;;;3.47;2.08;;;;;;;3.13;100.00;102003.56;4998702;28;20412;-79
2022/01/12 02:09:37;;;;;;;3.65;1.25;;;;;;;3.16;100.00;102013.03;5010084;28;20073;-80
2022/01/12 02:12:41;;;;;;;0.47;0.47;;;;;;;3.12;100.00;102012.19;4998652;28;20049;-79
2022/01/12 02:15:46;;;;;;;6.75;1.45;;;;;;;3.18;100.00;102011.50;5010552;28;20057;-79
2022/01/12 02:42:16;;;;;;;1.77;1.40;;;;;;;2.41;100.00;102049.59;5013950;28;20065;-80
2022/01/12 02:55:21;;;;;;;3.85;1.77;;;;;;;2.32;100.00;102043.53;5006919;28;20056;-80
2022/01/12 02:58:24;;;;;;;5.40;1.42;;;;;;;2.23;100.00;102048.50;5006896;28;20045;-80
2022/01/12 03:04:38;;;;;;;2.00;1.83;;;;;;;2.24;100.00;102039.09;5010511;28;20064;-80
2022/01/12 03:07:41;;;;;;;3.50;1.20;;;;;;;2.16;100.00;102026.38;4990459;28;20057;-80
2022/01/12 03:10:45;;;;;;;1.10;0.73;;;;;;;2.18;100.00;102029.56;5001496;28;20415;-80
2022/01/12 03:13:49;;;;;;;4.13;2.17;;;;;;;2.15;100.00;102035.78;5014145;28;20502;-80
2022/01/12 03:16:52;;;;;;;4.13;1.77;;;;;;;2.23;100.00;102038.28;5013603;28;20053;-80
2022/01/12 03:19:56;;;;;;;1.55;1.45;;;;;;;2.28;100.00;102039.94;5001054;28;20073;-80
2022/01/12 03:22:59;;;;;;;6.38;1.80;;;;;;;2.34;100.00;102038.47;5013265;28;20408;-80
2022/01/12 03:26:04;;;;;;;2.38;1.58;;;;;;;2.46;100.00;102032.81;5013480;28;20061;-80
2022/01/12 03:29:08;;;;;;;1.83;1.30;;;;;;;2.46;100.00;102037.50;5000997;28;20061;-80
2022/01/12 03:32:12;;;;;;;4.95;0.77;;;;;;;2.35;100.00;102045.56;5001237;28;20510;-80
2022/01/12 03:35:46;;;;;;;1.90;1.75;;;;;;;2.22;100.00;102057.91;5001570;28;20515;-80
2022/01/12 03:38:48;;;;;;;;;;;;;;;2.09;100.00;102061.97;5013761;28;20053;-81
2022/01/12 03:41:52;;;;;;;3.15;2.00;;;;;;;2.10;100.00;102055.34;5001609;28;19918;-80
2022/01/12 03:44:55;;;;;;;0.60;0.60;;;;;;;2.11;100.00;102052.22;5012391;28;20053;-80
2022/01/12 03:47:58;;;;;;;1.77;1.67;;;;;;;2.10;100.00;102060.81;5012972;28;20064;-80
2022/01/12 03:51:02;;;;;;;2.55;1.05;;;;;;;2.18;100.00;102073.53;5000315;28;20165;-80
2022/01/12 03:54:05;;;;;;;1.27;1.13;;;;;;;2.17;100.00;102075.47;5012473;28;20053;-80
2022/01/12 03:57:09;;;;;;;1.80;1.13;;;;;;;2.18;100.00;102066.09;5012622;28;20052;-81
2022/01/12 04:00:12;;;;;;;3.92;2.03;;;;;;;2.16;100.00;102059.38;4999984;28;20061;-80
2022/01/12 04:03:17;;;;;;;3.05;1.52;;;;;;;2.08;100.00;102074.13;5012751;28;20063;-80
2022/01/12 04:09:46;;;;;;;12.65;3.03;;;;;;;2.01;100.00;102079.50;5011978;28;20057;-80
2022/01/12 04:12:49;;;;;;;1.35;0.82;;;;;;;1.92;100.00;102076.16;5012715;28;20053;-80
2022/01/12 04:15:57;;;;;;;1.27;0.77;;;;;;;1.86;100.00;102078.44;5000508;28;20069;-81
2022/01/12 04:19:00;;;;;;;7.00;1.60;;;;;;;1.88;100.00;102080.81;5000103;28;20056;-80
2022/01/12 04:23:16;;;;;;;1.55;1.45;;;;;;;1.93;100.00;102083.25;5012130;28;20061;-81
2022/01/12 04:25:31;;;;;;;1.38;0.95;;;;;;;1.82;100.00;102077.53;5011822;28;20045;-80
2022/01/12 04:28:36;;;;;;;3.67;1.30;;;;;;;1.85;100.00;102081.50;5000359;28;20057;-80
2022/01/12 04:31:39;;;;;;;3.75;1.73;;;;;;;1.86;100.00;102089.41;5000247;28;20057;-80
2022/01/12 04:34:43;;;;;;;1.35;1.02;;;;;;;1.94;100.00;102093.09;5012152;28;20415;-81
2022/01/12 04:37:46;;;;;;;3.22;1.10;;;;;;;1.94;100.00;102101.31;4999756;28;20049;-81
2022/01/12 04:40:50;;;;;;;1.75;1.52;;;;;;;1.96;100.00;102102.56;5011774;28;20065;-81
2022/01/12 04:43:55;;;;;;;3.60;0.88;;;;;;;2.01;100.00;102105.03;4997419;28;20507;-81
2022/01/12 04:47:14;;;;;;;0.95;0.80;;;;;;;2.03;100.00;102110.16;5000109;28;20056;-80
2022/01/12 04:50:17;;;;;;;7.15;1.02;;;;;;;1.95;100.00;102113.91;5011914;28;20076;-81
2022/01/12 04:53:21;;;;;;;0.80;0.70;;;;;;;1.91;100.00;102113.81;4999982;28;20080;-80
2022/01/12 04:56:28;;;;;;;20.42;1.45;;;;;;;1.95;100.00;102113.91;4999157;28;20056;-80
2022/01/12 04:59:35;;;;;;;10.02;1.42;;;;;;;1.99;100.00;102114.78;4998953;28;20048;-81
2022/01/12 05:09:48;;;;;;;4.53;1.45;;;;;;;1.99;100.00;102115.56;5011307;28;20072;-80
2022/01/12 05:12:54;;;;;;;0.35;0.35;;;;;;;2.00;100.00;102105.38;4991074;28;20060;-80
2022/01/12 05:15:58;;;;;;;2.38;1.10;;;;;;;1.96;100.00;102105.31;5011531;28;20049;-80
2022/01/12 05:19:04;;;;;;;3.13;2.83;;;;;;;1.98;100.00;102102.19;4999841;28;20060;-80
2022/01/12 05:22:08;;;;;;;3.53;1.73;;;;;;;2.05;100.00;102102.34;5011731;28;20069;-80
2022/01/12 05:25:12;;;;;;;1.60;0.95;;;;;;;2.06;100.00;102103.91;5011419;28;20506;-81
2022/01/12 05:28:16;;;;;;;3.95;1.38;;;;;;;2.06;100.00;102103.91;4996989;28;20053;-80
2022/01/12 05:31:20;;;;;;;2.45;1.23;;;;;;;2.06;100.00;102103.91;4990874;28;20062;-80
2022/01/12 05:34:26;;;;;;;1.13;1.02;;;;;;;2.15;100.00;102112.72;4986515;28;20053;-80
2022/01/12 05:37:29;;;;;;;2.72;0.95;;;;;;;2.16;100.00;102114.34;5011510;28;20057;-80
2022/01/12 05:40:32;;;;;;;7.60;1.75;;;;;;;2.13;100.00;102115.03;4999390;28;20057;-80
2022/01/12 05:43:38;;;;;;;1.55;1.40;;;;;;;2.14;100.00;102111.16;5011185;28;20057;-80
2022/01/12 05:46:42;;;;;;;6.47;2.75;;;;;;;2.13;100.00;102115.84;4989403;28;20407;-80
2022/01/12 05:49:46;;;;;;;0.65;0.65;;;;;;;2.15;100.00;102126.47;4998821;28;20057;-80
2022/01/12 05:52:49;;;;;;;0.45;0.45;;;;;;;2.16;100.00;102136.31;5011340;28;20053;-80
2022/01/12 05:55:53;;;;;;;1.35;1.25;;;;;;;2.22;100.00;102149.41;5011011;28;20053;-80
2022/01/12 05:58:56;;;;;;;1.55;1.02;;;;;;;2.25;100.00;102139.66;4998573;28;20045;-80
2022/01/12 06:02:02;;;;;;;0.95;0.70;;;;;;;2.28;100.00;102147.16;5010895;28;20081;-79
2022/01/12 06:05:07;;;;;;;2.25;1.50;;;;;;;2.23;100.00;102147.47;5011106;28;20679;-80
2022/01/12 06:08:10;;;;;;;0.52;0.52;;;;;;;2.23;100.00;102158.47;4993491;28;20049;-80
2022/01/12 06:11:14;;;;;;;1.95;0.90;;;;;;;2.21;100.00;102155.25;5014402;28;20060;-80
2022/01/12 06:14:19;;;;;;;3.72;1.35;;;;;;;2.26;100.00;102152.22;5015750;28;20041;-78
2022/01/12 06:17:22;;;;;;;4.70;1.45;;;;;;;2.24;100.00;102154.53;5002245;28;20407;-78
2022/01/12 06:20:26;;;;;;;0.90;0.90;;;;;;;2.28;100.00;102160.91;5014650;28;20061;-78
2022/01/12 06:23:30;;;;;;;0.80;0.80;;;;;;;2.31;100.00;102157.44;5014586;28;20049;-78
2022/01/12 06:26:35;;;;;;;0.63;0.63;;;;;;;2.33;100.00;102166.09;5000095;28;20049;-77
2022/01/12 06:32:45;;;;;;;1.85;1.42;;;;;;;2.25;100.00;102162.41;5012819;28;20044;-77
2022/01/12 06:35:49;;;;;;;1.25;1.15;;;;;;;2.23;100.00;102163.97;4998938;28;20065;-77
2022/01/12 06:38:52;;;;;;;1.45;0.85;;;;;;;2.22;100.00;102170.59;4999867;28;20049;-78
2022/01/12 06:41:56;;;;;;;3.05;1.15;;;;;;;2.22;100.00;102179.66;5012912;28;20435;-77
2022/01/12 06:44:59;;;;;;;0.85;0.60;;;;;;;2.21;100.00;102180.78;5011704;28;20053;-79
2022/01/12 06:48:03;;;;;;;0.82;0.82;;;;;;;2.16;100.00;102180.28;5012312;28;20057;-78
2022/01/12 06:51:08;;;;;;;3.72;1.40;;;;;;;2.14;100.00;102183.38;5000638;28;20138;-77
2022/01/12 06:54:12;;;;;;;3.20;1.85;;;;;;;2.11;100.00;102186.06;4998458;28;20071;-78
2022/01/12 06:57:17;;;;;;;6.00;1.70;;;;;;;2.13;100.00;102192.81;5001784;28;20056;-78
2022/01/12 07:00:20;;;;;;;3.50;1.55;;;;;;;2.10;100.00;102199.00;5001405;28;20506;-77
2022/01/12 07:03:23;;;;;;;2.10;1.90;;;;;;;2.09;100.00;102208.44;5013686;28;20048;-77
2022/01/12 07:06:27;;;;;;;3.80;2.17;;;;;;;2.04;100.00;102222.44;5001633;28;20049;-77
2022/01/12 07:09:31;;;;;;;1.50;1.40;;;;;;;2.06;100.00;102224.81;5001112;28;20053;-78
2022/01/12 07:12:34;;;;;;;4.38;1.63;;;;;;;1.99;100.00;102219.19;4999697;28;20077;-77
2022/01/12 07:15:38;;;;;;;11.43;2.67;;;;;;;1.99;100.00;102230.19;5010817;28;20400;-77
2022/01/12 07:18:41;;;;;;;1.45;1.35;;;;;;;1.97;100.00;102227.78;5011169;28;20061;-78
2022/01/12 07:21:45;;;;;;;4.97;3.47;;;;;;;1.95;100.00;102232.84;5009149;28;20049;-77
2022/01/12 07:24:48;;;;;;;3.72;3.33;;;;;;;1.93;100.00;102237.09;4996075;28;20072;-77
2022/01/12 07:27:52;;;;;;;19.85;5.13;;;;;;;1.92;100.00;102243.75;5001121;28;20049;-78
2022/01/12 07:30:55;;;;;;;1.30;0.90;;;;;;;1.91;100.00;102242.16;5000786;28;20073;-78
2022/01/12 07:33:58;;;;;;;5.97;2.63;;;;;;;1.88;100.00;102245.63;5013356;28;20053;-78
2022/01/12 07:37:02;;;;;;;4.30;1.98;;;;;;;1.83;100.00;102243.16;5001042;28;20057;-78
2022/01/12 07:40:07;;;;;;;2.35;2.15;;;;;;;1.80;100.00;102252.13;5001199;28;20057;-78
2022/01/12 07:43:11;;;;;;;3.97;3.08;;;;;;;1.80;100.00;102257.63;4999856;28;20053;-77
2022/01/12 07:46:15;;;;;;;10.70;3.92;;;;;;;1.80;100.00;102261.16;4999378;28;20052;-76
2022/01/12 07:49:18;;;;;;;6.80;1.80;;;;;;;1.82;100.00;102256.09;4998088;28;20603;-76
2022/01/12 07:52:22;;;;;;;2.60;1.67;;;;;;;1.79;100.00;102253.28;5003882;28;20403;-77
2022/01/12 07:55:26;;;;;;;2.22;1.77;;;;;;;1.79;100.00;102253.28;5011051;28;20049;-76
2022/01/12 07:58:29;;;;;;;5.85;2.15;;;;;;;1.78;100.00;102262.66;4999347;28;20065;-77
2022/01/12 08:01:32;;;;;;;1.42;1.42;;;;;;;1.81;100.00;102272.94;4998434;28;20053;-76
2022/01/12 08:04:36;;;;;;;3.13;2.38;;;;;;;1.79;100.00;102267.00;5011447;28;20053;-76
2022/01/12 08:07:40;;;;;;;2.63;1.60;;;;;;;1.78;100.00;102265.41;4996571;28;20045;-76
2022/01/12 08:10:44;;;;;;;3.92;2.20;;;;;;;1.71;100.00;102268.00;5008808;28;20107;-77
2022/01/12 08:13:47;;;;;;;2.45;1.42;;;;;;;1.78;100.00;102273.63;5009788;28;20049;-77
2022/01/12 08:16:50;;;;;;;9.07;3.10;;;;;;;1.73;100.00;102277.47;5010979;28;20061;-76
2022/01/12 08:19:56;;;;;;;0.82;0.82;;;;;;;1.75;100.00;102279.88;5009930;28;20542;-76
2022/01/12 08:23:00;;;;;;;4.55;1.50;;;;;;;1.75;100.00;102285.34;5010211;28;20052;-78
2022/01/12 08:26:03;;;;;;;3.92;1.23;;;;;;;1.80;100.00;102285.09;5008031;28;20052;-78
2022/01/12 08:29:10;;;;;;;2.75;0.93;;;;;;;1.82;100.00;102280.03;5010576;28;20053;-80
2022/01/12 08:32:13;;;;;;;5.22;1.90;;;;;;;1.80;100.00;102293.34;4997702;28;21466;-81
2022/01/12 08:35:18;;;;;;;7.40;2.65;;;;;;;1.90;100.00;102299.06;4997785;28;20053;-78
2022/01/12 08:38:21;;;;;;;4.53;2.22;;;;;;;1.94;100.00;102288.16;5008052;28;20608;-79
2022/01/12 08:41:24;;;;;;;6.13;2.50;;;;;;;1.99;100.00;102290.63;4996514;28;20518;-78
2022/01/12 08:44:28;;;;;;;1.83;1.73;;;;;;;2.04;100.00;102293.09;5011570;28;20061;-77
2022/01/12 08:47:32;;;;;;;4.35;1.10;;;;;;;2.06;100.00;102293.53;5011675;28;20049;-76
2022/01/12 08:50:35;;;;;;;4.70;2.95;;;;;;;2.11;100.00;102290.50;5011661;28;20399;-74
2022/01/12 08:53:38;;;;;;;4.88;1.98;;;;;;;2.16;100.00;102301.22;4997801;28;20056;-75
2022/01/12 08:56:42;;;;;;;7.18;1.70;;;;;;;2.17;100.00;102306.38;5002025;28;20048;-77
2022/01/12 08:59:45;;;;;;;4.25;2.03;;;;;;;2.23;100.00;102301.41;4999236;28;20053;-78
2022/01/12 09:02:48;;;;;;;11.05;1.98;;;;;;;2.24;100.00;102286.47;5011605;28;20049;-78
2022/01/12 09:05:52;;;;;;;6.45;1.75;;;;;;;2.20;100.00;102294.66;4999545;28;20068;-78
2022/01/12 09:08:55;;;;;;;5.00;2.17;;;;;;;2.24;100.00;102302.97;5011423;28;20057;-78
2022/01/12 09:11:58;;;;;;;2.80;1.63;;;;;;;2.31;100.00;102311.38;5011359;28;20049;-78
2022/01/12 09:15:04;;;;;;;7.30;2.22;;;;;;;2.35;100.00;102304.00;4979641;28;20053;-77
2022/01/12 09:18:07;;;;;;;24.60;3.13;;;;;;;2.42;100.00;102315.16;5011851;28;20057;-77
2022/01/12 09:21:11;;;;;;;9.73;2.97;;;;;;;2.44;100.00;102315.59;5011712;28;20061;-77
2022/01/12 09:24:16;;;;;;;10.13;3.05;;;;;;;2.42;100.00;102331.66;5011617;28;20052;-78
2022/01/12 09:27:19;;;;;;;9.43;2.33;;;;;;;2.41;100.00;102332.81;5011187;28;20060;-79
2022/01/12 09:30:26;;;;;;;9.15;2.67;;;;;;;2.43;100.00;102330.50;4999205;28;20053;-79
2022/01/12 09:33:30;;;;;;;1.42;1.30;;;;;;;2.51;100.00;102334.22;4999367;28;20052;-78
2022/01/12 09:36:33;;;;;;;8.55;2.28;;;;;;;2.57;100.00;102321.75;5010689;28;20057;-78
2022/01/12 09:39:37;;;;;;;3.45;1.92;;;;;;;2.58;100.00;102318.63;4999414;28;20049;-79
2022/01/12 09:42:47;;;;;;;3.20;1.65;;;;;;;2.63;100.00;102315.59;5011199;28;20415;-79
2022/01/12 09:45:51;;;;;;;0.63;0.63;;;;;;;2.70;100.00;102326.75;5014078;28;20044;-79
2022/01/12 09:48:57;;;;;;;1.65;0.98;;;;;;;2.72;100.00;102329.16;5003009;28;20053;-79
2022/01/12 09:52:00;;;;;;;1.75;1.50;;;;;;;2.78;100.00;102331.25;4989938;28;20511;-79
2022/01/12 09:55:05;;;;;;;3.40;1.45;;;;;;;2.82;100.00;102336.81;4989514;28;20053;-78
2022/01/12 09:58:08;;;;;;;2.95;1.90;;;;;;;2.85;100.00;102345.16;4995325;28;20065;-78
2022/01/12 10:01:12;;;;;;;3.80;1.35;;;;;;;2.87;100.00;102344.78;5011116;28;20065;-78
2022/01/12 10:04:18;;;;;;;1.98;1.00;;;;;;;2.90;100.00;102344.06;5014673;28;20052;-82
2022/01/12 10:07:22;;;;;;;2.15;0.90;;;;;;;2.92;100.00;102339.78;5014733;28;20399;-79
2022/01/12 10:10:26;;;;;;;1.70;1.60;;;;;;;2.97;100.00;102346.94;5014974;28;20053;-79
2022/01/12 10:13:30;;;;;;;2.85;2.30;;;;;;;2.96;100.00;102334.34;5014974;28;20056;-79
2022/01/12 10:16:33;;;;;;;4.95;1.73;;;;;;;3.03;100.00;102342.75;5014671;28;20122;-79
2022/01/12 10:19:37;;;;;;;2.90;0.60;;;;;;;3.08;100.00;102331.44;5014327;28;20073;-80
2022/01/12 10:22:57;;;;;;;5.53;1.95;;;;;;;3.11;100.00;102338.97;5014674;28;20053;-79
2022/01/12 10:26:01;;;;;;;0.93;0.88;;;;;;;3.15;100.00;102339.84;4999047;28;20049;-79
2022/01/12 10:29:10;;;;;;;5.75;1.55;;;;;;;3.21;100.00;102335.63;5014864;28;20171;-79
2022/01/12 10:32:17;;;;;;;2.10;0.95;;;;;;;3.30;100.00;102327.13;4994957;28;20057;-79
2022/01/12 10:35:28;;;;;;;2.72;1.67;;;;;;;3.32;100.00;102317.34;5010611;28;20053;-79
2022/01/12 10:38:31;;;;;;;1.13;1.10;;;;;;;3.36;100.00;102309.94;5014609;28;20056;-79
2022/01/12 10:41:36;;;;;;;6.13;2.53;;;;;;;3.46;100.00;102319.56;5014216;28;20061;-79
2022/01/12 10:44:42;;;;;;;1.70;1.23;;;;;;;3.52;100.00;102326.34;5014189;28;20396;-79
2022/01/12 10:47:45;;;;;;;15.50;2.10;;;;;;;3.54;100.00;102321.25;5013843;28;20053;-79
2022/01/12 10:50:57;;;;;;;0.52;0.50;;;;;;;3.59;100.00;102321.78;5014011;28;20053;-79
2022/01/12 10:54:03;;;;;;;2.38;1.17;;;;;;;3.60;100.00;102314.28;5013665;28;20053;-79
2022/01/12 10:57:15;;;;;;;1.20;0.98;;;;;;;3.63;100.00;102303.34;5013111;28;20568;-79
2022/01/12 11:00:19;;;;;;;;;;;;;;;3.69;100.00;102304.59;5013581;28;20053;-78
2022/01/12 11:03:23;;;;;;;6.65;1.45;;;;;;;3.76;100.00;102307.47;5013918;28;19917;-79
2022/01/12 11:06:27;;;;;;;8.10;2.45;;;;;;;3.74;100.00;102303.50;5001948;28;20052;-78
2022/01/12 11:09:31;;;;;;;16.08;4.25;;;;;;;3.77;100.00;102311.00;5013254;28;20053;-77
2022/01/12 11:12:36;;;;;;;8.52;3.72;;;;;;;3.87;100.00;102304.09;5000482;28;20069;-77
2022/01/12 11:15:40;;;;;;;5.75;2.55;;;;;;;3.94;100.00;102296.75;5013844;28;20507;-78
2022/01/12 11:18:45;;;;;;;4.10;1.10;;;;;;;4.08;100.00;102302.44;5013376;28;20049;-77
2022/01/12 11:22:02;;;;;;;9.75;1.73;;;;;;;4.14;100.00;102305.66;5012859;28;20045;-77
2022/01/12 11:25:21;;;;;;;3.33;1.83;;;;;;;4.18;100.00;102307.31;5013544;28;20057;-79
2022/01/12 11:28:37;;;;;;;8.80;1.98;;;;;;;4.28;100.00;102312.22;4998851;28;20069;-78
2022/01/12 11:31:41;;;;;;;0.88;0.68;;;;;;;4.38;100.00;102306.03;5013374;28;20053;-77
2022/01/12 11:34:44;;;;;;;3.35;1.45;;;;;;;4.42;100.00;102295.84;5012937;28;20408;-77
2022/01/12 11:37:48;;;;;;;1.10;0.60;;;;;;;4.51;100.00;102298.31;5013095;28;20057;-78
2022/01/12 11:40:55;;;;;;;10.10;1.75;;;;;;;4.50;100.00;102303.03;5001277;28;20049;-78
2022/01/12 11:44:05;;;;;;;0.70;0.68;;;;;;;4.54;100.00;102298.38;5012509;28;20056;-78
2022/01/12 11:47:15;;;;;;;2.25;1.38;;;;;;;4.63;100.00;102298.84;5012667;28;20400;-79
2022/01/12 11:50:18;;;;;;;4.88;1.75;;;;;;;4.73;100.00;102302.13;5012887;28;20052;-79
2022/01/12 11:53:22;;;;;;;5.68;2.90;;;;;;;4.80;100.00;102296.69;5012882;28;20073;-77
2022/01/12 11:56:26;;;;;;;5.53;3.45;;;;;;;4.87;100.00;102299.56;5012825;28;20053;-78
2022/01/12 11:59:49;;;;;;;5.78;1.38;;;;;;;4.86;100.00;102297.94;4139423;22;20083;-53
2022/01/12 12:02:53;;;;;;;1.40;1.15;;;;;;;5.01;100.00;102294.19;5054897;28;20123;-53
2022/01/12 12:05:56;;;;;;;1.58;1.35;;;;;;;5.07;100.00;102293.47;5053459;28;20055;-53
2022/01/12 12:09:07;;;;;;;4.75;0.95;;;;;;;5.12;100.00;102300.59;5059532;28;20416;-52
2022/01/12 12:12:17;;;;;;;5.93;1.23;;;;;;;5.21;100.00;102309.38;5072943;28;20067;-52
2022/01/12 12:15:23;;;;;;;1.92;1.48;;;;;;;5.33;100.00;102309.09;5072081;28;20056;-53
2022/01/12 12:18:27;;;;;;;2.47;0.57;;;;;;;5.40;100.00;102314.69;5072784;28;20051;-53
2022/01/12 12:21:34;;;;;;;0.95;0.95;;;;;;;5.50;100.00;102304.94;5073114;28;20499;-53
2022/01/12 12:24:39;;;;;;;0.60;0.60;;;;;;;5.64;100.00;102294.78;5056452;28;20056;-52
2022/01/12 12:27:45;;;;;;;2.15;1.15;;;;;;;5.81;100.00;102299.66;5072977;28;20055;-53
2022/01/12 12:30:48;;;;;;;0.28;0.28;;;;;;;5.87;100.00;102300.91;5057376;28;20047;-53
2022/01/12 12:34:06;;;;;;;3.80;1.08;;;;;;;5.97;100.00;102291.13;5072641;28;20055;-53
2022/01/12 12:37:12;;;;;;;3.83;1.05;;;;;;;6.07;100.00;102282.88;5071789;28;20453;-53
2022/01/12 12:40:23;;;;;;;1.95;0.82;;;;;;;6.28;100.00;102279.44;5072985;28;20055;-54
2022/01/12 12:43:33;;;;;;;5.70;0.68;;;;;;;6.63;100.00;102285.16;5052578;28;20048;-55
2022/01/12 12:46:37;;;;;;;2.50;1.08;;;;;;;6.88;100.00;102279.72;5070956;28;20047;-54
2022/01/12 12:49:48;;;;;;;0.77;0.77;;;;;;;7.14;100.00;102273.84;5072526;28;20067;-54
2022/01/12 12:52:52;;;;;;;1.15;0.47;;;;;;;7.62;100.00;102274.28;5072488;28;20055;-54
2022/01/12 12:55:56;;;;;;;2.92;0.63;;;;;;;7.85;100.00;102282.19;5072689;28;20119;-54
2022/01/12 12:59:00;;;;;;;4.10;0.77;;;;;;;7.98;100.00;102283.34;5057265;28;20055;-54
2022/01/12 13:02:12;;;;;;;0.38;0.38;;;;;;;8.19;100.00;102280.53;5072223;28;20055;-54
2022/01/12 13:05:27;;;;;;;0.50;0.35;;;;;;;8.43;100.00;102265.81;5067723;28;20064;-55
2022/01/12 13:08:31;;;;;;;0.20;0.20;;;;;;;8.68;100.00;102274.84;5072336;28;20048;-55
2022/01/12 13:11:37;;;;;;;3.50;0.80;;;;;;;8.77;100.00;102289.06;5072085;28;20491;-56
2022/01/12 13:14:43;;;;;;;2.83;0.77;;;;;;;8.93;100.00;102294.16;5071473;28;20044;-55
2022/01/12 13:17:47;;;;;;;0.65;0.32;;;;;;;9.02;100.00;102278.66;5062434;28;20051;-55
2022/01/12 13:21:09;;;;;;;3.10;0.30;;;;;;;9.05;100.00;102275.03;5071186;28;20055;-56
2022/01/12 13:24:13;;;;;;;0.20;0.20;;;;;;;9.04;100.00;102281.00;5071906;28;20055;-55
2022/01/12 13:27:16;;;;;;;0.40;0.30;;;;;;;8.97;100.00;102276.28;5070367;28;20047;-56
2022/01/12 13:30:27;;;;;;;3.65;1.10;;;;;;;9.06;100.00;102273.84;5072325;28;20067;-56
2022/01/12 13:33:34;;;;;;;0.25;0.25;;;;;;;9.14;100.00;102275.38;5072042;28;20059;-56
2022/01/12 13:36:38;;;;;;;0.50;0.30;;;;;;;9.15;100.00;102265.84;5072203;28;20052;-56
2022/01/12 13:39:43;;;;;;;0.10;0.10;;;;;;;9.16;100.00;102267.44;5059434;28;20055;-56
2022/01/12 13:42:54;;;;;;;9.20;2.03;;;;;;;9.19;100.00;102257.47;5072156;28;20052;-55
2022/01/12 13:46:11;;;;;;;0.10;0.10;;;;;;;9.14;100.00;102255.13;5071618;28;20047;-55
2022/01/12 13:52:19;;;;;;;1.58;0.32;;;;;;;9.13;100.00;102254.34;5072030;28;20068;-55
2022/01/12 13:55:23;;;;;;;2.10;0.63;;;;;;;9.18;100.00;102260.69;5052294;28;20488;-55
2022/01/12 13:58:28;;;;;;;0.60;0.50;;;;;;;9.20;100.00;102253.53;5052248;28;20048;-55
2022/01/12 14:01:34;;;;;;;2.78;0.70;;;;;;;9.19;100.00;102251.94;5051833;28;20048;-55
2022/01/12 14:04:42;;;;;;;1.45;0.43;;;;;;;9.26;100.00;102242.75;5065524;28;20055;-56
2022/01/12 14:08:00;;;;;;;1.10;0.45;;;;;;;9.24;100.00;102243.16;5076334;28;20047;-55
2022/01/12 14:11:03;;;;;;;0.75;0.28;;;;;;;9.16;100.00;102234.06;5073120;28;20407;-55
2022/01/12 14:14:07;;;;;;;2.97;0.50;;;;;;;9.13;100.00;102239.66;5071599;28;20511;-55
2022/01/12 14:17:41;;;;;;;0.50;0.30;;;;;;;9.09;100.00;102242.47;5071286;28;20055;-55
2022/01/12 14:20:46;;;;;;;3.05;0.25;;;;;;;9.06;100.00;102246.06;5072426;28;20378;-56
2022/01/12 14:23:49;;;;;;;1.27;1.20;;;;;;;9.00;100.00;102241.34;5051916;28;20065;-56
2022/01/12 14:26:53;;;;;;;0.32;0.32;;;;;;;8.90;100.00;102242.97;5067298;28;20059;-56
2022/01/12 14:29:56;;;;;;;0.50;0.30;;;;;;;8.79;100.00;102258.91;5071147;28;20047;-55
2022/01/12 14:33:00;;;;;;;0.38;0.25;;;;;;;8.70;100.00;102255.00;5074672;28;20075;-55
2022/01/12 14:36:03;;;;;;;0.10;0.10;;;;;;;8.62;100.00;102256.25;5063514;28;20063;-56
2022/01/12 14:39:08;;;;;;;0.25;0.10;;;;;;;8.51;100.00;102244.38;5075040;28;20441;-56
2022/01/12 14:42:12;;;;;;;0.15;0.10;;;;;;;8.37;100.00;102242.44;5074959;28;20052;-55
2022/01/12 14:45:19;;;;;;;0.43;0.43;;;;;;;8.40;100.00;102233.31;5074988;28;20052;-56
2022/01/12 14:48:23;;;;;;;1.58;0.73;;;;;;;8.27;100.00;102232.19;5074929;28;20071;-56
2022/01/12 14:51:26;;;;;;;1.08;0.73;;;;;;;8.19;100.00;102241.66;5074632;28;20051;-55
2022/01/12 14:54:30;;;;;;;0.20;0.20;;;;;;;8.14;100.00;102239.31;5074879;28;20072;-56
2022/01/12 14:57:34;;;;;;;1.55;0.90;;;;;;;8.07;100.00;102239.34;5075090;28;20056;-56
2022/01/12 15:00:37;;;;;;;17.88;0.68;;;;;;;8.02;100.00;102242.50;6105375;22;20058;-78
2022/01/12 15:03:41;;;;;;;1.15;0.32;;;;;;;7.92;100.00;102246.09;6148211;23;20042;-77
2022/01/12 15:06:44;;;;;;;0.30;0.30;;;;;;;7.79;100.00;102240.19;6112559;23;20047;-77
2022/01/12 15:09:47;;;;;;;0.52;0.52;;;;;;;7.69;100.00;102246.53;6076348;23;20047;-79
2022/01/12 15:12:56;;;;;;;0.52;0.52;;;;;;;7.75;100.00;102244.16;6109748;23;20540;-78
2022/01/12 15:16:00;;;;;;;2.38;0.82;;;;;;;7.71;100.00;102240.59;6081505;23;20062;-76
2022/01/12 15:19:03;;;;;;;1.15;0.30;;;;;;;7.61;100.00;102242.97;6120543;23;20039;-80
2022/01/12 15:22:07;;;;;;;0.68;0.57;;;;;;;7.59;100.00;102242.59;6083448;23;20058;-76
2022/01/12 15:25:12;;;;;;;0.52;0.22;;;;;;;7.51;100.00;102245.75;6102252;23;20047;-77
2022/01/12 15:28:16;;;;;;;0.75;0.75;;;;;;;7.48;100.00;102235.44;6097803;23;20505;-76
2022/01/12 15:31:19;;;;;;;3.17;1.83;;;;;;;7.50;100.00;102244.97;6093390;23;20392;-76
2022/01/12 15:34:23;;;;;;;5.20;1.08;;;;;;;7.50;100.00;102250.50;6088187;23;20047;-79